sensor_id;sensor_type;location;lat;lon;timestamp;temperature;humidity
17659;DHT22;8948;51.534;8.262;2024-03-02T00:01:46;8.90;61.50
17659;DHT22;8948;51.534;8.262;2024-03-02T00:06:47;8.90;61.60
17659;DHT22;8948;51.534;8.262;2024-03-02T00:11:47;8.80;61.60
17659;DHT22;8948;51.534;8.262;2024-03-02T00:16:48;8.80;61.60
17659;DHT22;8948;51.534;8.262;2024-03-02T00:21:49;8.80;62.10
17659;DHT22;8948;51.534;8.262;2024-03-02T00:26:49;8.80;61.90
17659;DHT22;8948;51.534;8.262;2024-03-02T00:31:50;8.80;61.80
17659;DHT22;8948;51.534;8.262;2024-03-02T00:36:50;8.80;61.80
17659;DHT22;8948;51.534;8.262;2024-03-02T00:41:51;8.70;61.90
17659;DHT22;8948;51.534;8.262;2024-03-02T00:46:52;8.70;62.50
17659;DHT22;8948;51.534;8.262;2024-03-02T00:51:54;8.60;62.70
17659;DHT22;8948;51.534;8.262;2024-03-02T00:56:55;8.60;62.50
17659;DHT22;8948;51.534;8.262;2024-03-02T01:01:56;8.70;62.50
17659;DHT22;8948;51.534;8.262;2024-03-02T01:06:56;8.60;62.30
17659;DHT22;8948;51.534;8.262;2024-03-02T01:11:59;8.70;62.00
17659;DHT22;8948;51.534;8.262;2024-03-02T01:16:59;8.60;62.10
17659;DHT22;8948;51.534;8.262;2024-03-02T01:22:00;8.60;62.20
17659;DHT22;8948;51.534;8.262;2024-03-02T01:27:00;8.60;62.20
17659;DHT22;8948;51.534;8.262;2024-03-02T01:32:01;8.50;62.60
17659;DHT22;8948;51.534;8.262;2024-03-02T01:37:02;8.60;62.20
17659;DHT22;8948;51.534;8.262;2024-03-02T01:42:02;8.50;62.50
17659;DHT22;8948;51.534;8.262;2024-03-02T01:47:03;8.50;62.50
17659;DHT22;8948;51.534;8.262;2024-03-02T01:52:03;8.50;62.90
17659;DHT22;8948;51.534;8.262;2024-03-02T01:57:04;8.50;62.70
17659;DHT22;8948;51.534;8.262;2024-03-02T02:02:05;8.50;62.50
17659;DHT22;8948;51.534;8.262;2024-03-02T02:07:05;8.60;62.50
17659;DHT22;8948;51.534;8.262;2024-03-02T02:12:07;8.60;62.40
17659;DHT22;8948;51.534;8.262;2024-03-02T02:17:08;8.60;62.40
17659;DHT22;8948;51.534;8.262;2024-03-02T02:22:09;8.70;62.20
17659;DHT22;8948;51.534;8.262;2024-03-02T02:27:10;8.70;62.30
17659;DHT22;8948;51.534;8.262;2024-03-02T02:32:11;8.70;62.10
17659;DHT22;8948;51.534;8.262;2024-03-02T02:37:11;8.70;62.30
17659;DHT22;8948;51.534;8.262;2024-03-02T02:42:12;8.70;62.30
17659;DHT22;8948;51.534;8.262;2024-03-02T02:47:13;8.70;62.60
17659;DHT22;8948;51.534;8.262;2024-03-02T02:52:13;8.70;62.50
17659;DHT22;8948;51.534;8.262;2024-03-02T02:57:14;8.80;61.90
17659;DHT22;8948;51.534;8.262;2024-03-02T03:02:14;8.90;61.40
17659;DHT22;8948;51.534;8.262;2024-03-02T03:07:15;8.90;61.20
17659;DHT22;8948;51.534;8.262;2024-03-02T03:12:15;9.10;60.80
17659;DHT22;8948;51.534;8.262;2024-03-02T03:17:16;9.10;60.90
17659;DHT22;8948;51.534;8.262;2024-03-02T03:22:17;9.10;60.80
17659;DHT22;8948;51.534;8.262;2024-03-02T03:27:18;9.20;60.30
17659;DHT22;8948;51.534;8.262;2024-03-02T03:32:20;9.10;60.60
17659;DHT22;8948;51.534;8.262;2024-03-02T03:37:20;9.10;60.70
17659;DHT22;8948;51.534;8.262;2024-03-02T03:42:21;9.00;60.70
17659;DHT22;8948;51.534;8.262;2024-03-02T03:47:21;9.10;60.60
17659;DHT22;8948;51.534;8.262;2024-03-02T03:52:22;9.00;61.10
17659;DHT22;8948;51.534;8.262;2024-03-02T03:57:22;8.90;61.60
17659;DHT22;8948;51.534;8.262;2024-03-02T04:02:23;8.90;61.50
17659;DHT22;8948;51.534;8.262;2024-03-02T04:07:25;8.80;62.00
17659;DHT22;8948;51.534;8.262;2024-03-02T04:12:25;8.80;61.80
17659;DHT22;8948;51.534;8.262;2024-03-02T04:17:26;8.70;62.00
17659;DHT22;8948;51.534;8.262;2024-03-02T04:22:27;8.70;62.00
17659;DHT22;8948;51.534;8.262;2024-03-02T04:27:28;8.60;62.30
17659;DHT22;8948;51.534;8.262;2024-03-02T04:32:28;8.60;63.30
17659;DHT22;8948;51.534;8.262;2024-03-02T04:37:29;8.60;62.10
17659;DHT22;8948;51.534;8.262;2024-03-02T04:42:29;8.50;63.90
17659;DHT22;8948;51.534;8.262;2024-03-02T04:47:30;8.50;62.50
17659;DHT22;8948;51.534;8.262;2024-03-02T04:52:30;8.50;62.60
17659;DHT22;8948;51.534;8.262;2024-03-02T04:57:31;8.60;62.30
17659;DHT22;8948;51.534;8.262;2024-03-02T05:02:31;8.50;62.40
17659;DHT22;8948;51.534;8.262;2024-03-02T05:07:32;8.40;62.40
17659;DHT22;8948;51.534;8.262;2024-03-02T05:12:32;8.40;62.40
17659;DHT22;8948;51.534;8.262;2024-03-02T05:17:45;8.40;62.50
17659;DHT22;8948;51.534;8.262;2024-03-02T05:22:45;8.30;62.70
17659;DHT22;8948;51.534;8.262;2024-03-02T05:27:47;8.30;62.60
17659;DHT22;8948;51.534;8.262;2024-03-02T05:32:48;8.30;62.40
17659;DHT22;8948;51.534;8.262;2024-03-02T05:37:48;8.30;62.30
17659;DHT22;8948;51.534;8.262;2024-03-02T05:42:49;8.40;62.00
17659;DHT22;8948;51.534;8.262;2024-03-02T05:47:49;8.40;62.00
17659;DHT22;8948;51.534;8.262;2024-03-02T05:52:50;8.40;62.10
17659;DHT22;8948;51.534;8.262;2024-03-02T05:57:50;8.30;62.00
17659;DHT22;8948;51.534;8.262;2024-03-02T06:03:06;8.40;61.80
17659;DHT22;8948;51.534;8.262;2024-03-02T06:08:08;8.40;61.60
17659;DHT22;8948;51.534;8.262;2024-03-02T06:13:08;8.40;61.80
17659;DHT22;8948;51.534;8.262;2024-03-02T06:18:09;8.30;62.40
17659;DHT22;8948;51.534;8.262;2024-03-02T06:23:09;8.20;62.60
17659;DHT22;8948;51.534;8.262;2024-03-02T06:28:10;8.10;63.00
17659;DHT22;8948;51.534;8.262;2024-03-02T06:33:11;8.10;63.10
17659;DHT22;8948;51.534;8.262;2024-03-02T06:38:11;8.10;63.10
17659;DHT22;8948;51.534;8.262;2024-03-02T06:43:12;8.10;63.20
17659;DHT22;8948;51.534;8.262;2024-03-02T06:48:13;8.10;63.30
17659;DHT22;8948;51.534;8.262;2024-03-02T06:53:16;8.10;63.30
17659;DHT22;8948;51.534;8.262;2024-03-02T06:58:20;8.20;63.20
17659;DHT22;8948;51.534;8.262;2024-03-02T07:03:20;8.20;63.40
17659;DHT22;8948;51.534;8.262;2024-03-02T07:08:21;8.10;63.70
17659;DHT22;8948;51.534;8.262;2024-03-02T07:13:21;8.10;63.80
17659;DHT22;8948;51.534;8.262;2024-03-02T07:18:22;8.10;63.70
17659;DHT22;8948;51.534;8.262;2024-03-02T07:23:22;8.10;64.10
17659;DHT22;8948;51.534;8.262;2024-03-02T07:28:27;8.20;63.90
17659;DHT22;8948;51.534;8.262;2024-03-02T07:33:28;8.10;64.20
17659;DHT22;8948;51.534;8.262;2024-03-02T07:38:29;8.20;64.10
17659;DHT22;8948;51.534;8.262;2024-03-02T07:43:29;8.30;64.10
17659;DHT22;8948;51.534;8.262;2024-03-02T07:48:31;8.70;63.80
17659;DHT22;8948;51.534;8.262;2024-03-02T07:53:32;9.00;61.80
17659;DHT22;8948;51.534;8.262;2024-03-02T07:58:32;9.40;61.20
17659;DHT22;8948;51.534;8.262;2024-03-02T08:03:34;9.60;60.80
17659;DHT22;8948;51.534;8.262;2024-03-02T08:08:34;9.50;60.90
17659;DHT22;8948;51.534;8.262;2024-03-02T08:13:35;9.40;61.50
17659;DHT22;8948;51.534;8.262;2024-03-02T08:18:35;9.50;61.60
17659;DHT22;8948;51.534;8.262;2024-03-02T08:23:36;9.70;61.60
17659;DHT22;8948;51.534;8.262;2024-03-02T08:28:38;10.00;60.80
17659;DHT22;8948;51.534;8.262;2024-03-02T08:33:40;10.30;60.10
17659;DHT22;8948;51.534;8.262;2024-03-02T08:38:41;10.50;59.20
17659;DHT22;8948;51.534;8.262;2024-03-02T08:43:42;10.80;59.60
17659;DHT22;8948;51.534;8.262;2024-03-02T08:48:43;11.20;58.80
17659;DHT22;8948;51.534;8.262;2024-03-02T08:53:44;11.40;58.10
17659;DHT22;8948;51.534;8.262;2024-03-02T08:58:44;11.70;57.00
17659;DHT22;8948;51.534;8.262;2024-03-02T09:03:45;11.80;56.50
17659;DHT22;8948;51.534;8.262;2024-03-02T09:08:46;12.00;56.30
17659;DHT22;8948;51.534;8.262;2024-03-02T09:13:47;12.00;56.00
17659;DHT22;8948;51.534;8.262;2024-03-02T09:18:47;12.20;56.30
17659;DHT22;8948;51.534;8.262;2024-03-02T09:23:48;12.60;56.00
17659;DHT22;8948;51.534;8.262;2024-03-02T09:28:49;12.70;54.90
17659;DHT22;8948;51.534;8.262;2024-03-02T09:33:49;12.80;55.60
17659;DHT22;8948;51.534;8.262;2024-03-02T09:38:50;12.80;56.20
17659;DHT22;8948;51.534;8.262;2024-03-02T09:43:51;13.20;56.10
17659;DHT22;8948;51.534;8.262;2024-03-02T09:48:52;13.20;54.90
17659;DHT22;8948;51.534;8.262;2024-03-02T09:53:54;13.20;54.50
17659;DHT22;8948;51.534;8.262;2024-03-02T09:58:55;13.30;54.40
17659;DHT22;8948;51.534;8.262;2024-03-02T10:03:58;13.60;55.40
17659;DHT22;8948;51.534;8.262;2024-03-02T10:08:59;13.80;53.00
17659;DHT22;8948;51.534;8.262;2024-03-02T10:14:10;13.90;53.50
17659;DHT22;8948;51.534;8.262;2024-03-02T10:19:22;14.10;53.80
17659;DHT22;8948;51.534;8.262;2024-03-02T10:24:22;14.10;52.90
17659;DHT22;8948;51.534;8.262;2024-03-02T10:29:24;14.10;52.60
17659;DHT22;8948;51.534;8.262;2024-03-02T10:34:28;14.50;54.60
17659;DHT22;8948;51.534;8.262;2024-03-02T10:39:29;15.10;52.10
17659;DHT22;8948;51.534;8.262;2024-03-02T10:44:32;15.20;50.00
17659;DHT22;8948;51.534;8.262;2024-03-02T10:49:33;15.20;52.30
17659;DHT22;8948;51.534;8.262;2024-03-02T10:54:34;15.30;50.40
17659;DHT22;8948;51.534;8.262;2024-03-02T10:59:37;15.30;49.40
17659;DHT22;8948;51.534;8.262;2024-03-02T11:04:40;15.50;50.30
17659;DHT22;8948;51.534;8.262;2024-03-02T11:09:49;15.20;50.60
17659;DHT22;8948;51.534;8.262;2024-03-02T11:14:51;14.90;49.60
17659;DHT22;8948;51.534;8.262;2024-03-02T11:19:54;15.10;50.30
17659;DHT22;8948;51.534;8.262;2024-03-02T11:24:55;15.50;48.80
17659;DHT22;8948;51.534;8.262;2024-03-02T11:29:56;15.80;48.50
17659;DHT22;8948;51.534;8.262;2024-03-02T11:34:56;16.30;47.60
17659;DHT22;8948;51.534;8.262;2024-03-02T11:39:57;16.50;45.60
17659;DHT22;8948;51.534;8.262;2024-03-02T11:44:57;16.50;48.80
17659;DHT22;8948;51.534;8.262;2024-03-02T11:49:59;16.60;48.60
17659;DHT22;8948;51.534;8.262;2024-03-02T11:55:01;16.80;47.00
17659;DHT22;8948;51.534;8.262;2024-03-02T12:00:03;16.90;47.50
17659;DHT22;8948;51.534;8.262;2024-03-02T12:05:05;16.70;47.90
17659;DHT22;8948;51.534;8.262;2024-03-02T12:10:05;16.60;47.30
17659;DHT22;8948;51.534;8.262;2024-03-02T12:15:06;16.50;46.80
17659;DHT22;8948;51.534;8.262;2024-03-02T12:20:07;16.60;47.30
17659;DHT22;8948;51.534;8.262;2024-03-02T12:25:12;16.30;46.80
17659;DHT22;8948;51.534;8.262;2024-03-02T12:30:12;16.10;47.60
17659;DHT22;8948;51.534;8.262;2024-03-02T12:35:14;16.50;47.70
17659;DHT22;8948;51.534;8.262;2024-03-02T12:40:17;16.90;45.50
17659;DHT22;8948;51.534;8.262;2024-03-02T12:45:18;16.70;46.40
17659;DHT22;8948;51.534;8.262;2024-03-02T12:50:24;16.70;47.10
17659;DHT22;8948;51.534;8.262;2024-03-02T12:55:24;16.70;45.70
17659;DHT22;8948;51.534;8.262;2024-03-02T13:00:25;16.70;47.30
17659;DHT22;8948;51.534;8.262;2024-03-02T13:05:30;16.90;47.00
17659;DHT22;8948;51.534;8.262;2024-03-02T13:10:31;17.10;45.90
17659;DHT22;8948;51.534;8.262;2024-03-02T13:15:33;17.00;46.40
17659;DHT22;8948;51.534;8.262;2024-03-02T13:20:34;16.60;46.40
17659;DHT22;8948;51.534;8.262;2024-03-02T13:25:35;16.20;46.50
17659;DHT22;8948;51.534;8.262;2024-03-02T13:30:36;15.90;48.40
17659;DHT22;8948;51.534;8.262;2024-03-02T13:35:36;15.70;48.60
17659;DHT22;8948;51.534;8.262;2024-03-02T13:40:37;15.50;48.70
17659;DHT22;8948;51.534;8.262;2024-03-02T13:45:38;15.40;48.80
17659;DHT22;8948;51.534;8.262;2024-03-02T13:50:39;15.70;49.20
17659;DHT22;8948;51.534;8.262;2024-03-02T13:55:40;16.10;47.50
17659;DHT22;8948;51.534;8.262;2024-03-02T14:00:42;16.70;47.10
17659;DHT22;8948;51.534;8.262;2024-03-02T14:05:44;17.00;45.60
17659;DHT22;8948;51.534;8.262;2024-03-02T14:10:46;17.40;45.20
17659;DHT22;8948;51.534;8.262;2024-03-02T14:15:47;17.40;44.90
17659;DHT22;8948;51.534;8.262;2024-03-02T14:20:47;17.60;45.20
17659;DHT22;8948;51.534;8.262;2024-03-02T14:25:52;18.20;43.70
17659;DHT22;8948;51.534;8.262;2024-03-02T14:30:53;18.30;43.40
17659;DHT22;8948;51.534;8.262;2024-03-02T14:35:54;18.70;43.40
17659;DHT22;8948;51.534;8.262;2024-03-02T14:40:54;18.50;43.40
17659;DHT22;8948;51.534;8.262;2024-03-02T14:45:55;18.60;44.70
17659;DHT22;8948;51.534;8.262;2024-03-02T14:50:57;18.60;43.50
17659;DHT22;8948;51.534;8.262;2024-03-02T14:55:57;18.20;43.30
17659;DHT22;8948;51.534;8.262;2024-03-02T15:00:58;17.90;43.80
17659;DHT22;8948;51.534;8.262;2024-03-02T15:05:59;17.60;44.10
17659;DHT22;8948;51.534;8.262;2024-03-02T15:10:59;17.40;44.70
17659;DHT22;8948;51.534;8.262;2024-03-02T15:16:01;17.30;45.40
17659;DHT22;8948;51.534;8.262;2024-03-02T15:21:02;17.10;46.80
17659;DHT22;8948;51.534;8.262;2024-03-02T15:26:02;17.10;46.10
17659;DHT22;8948;51.534;8.262;2024-03-02T15:31:03;17.10;46.70
17659;DHT22;8948;51.534;8.262;2024-03-02T15:36:04;16.90;46.90
17659;DHT22;8948;51.534;8.262;2024-03-02T15:41:05;16.50;47.30
17659;DHT22;8948;51.534;8.262;2024-03-02T15:46:06;16.10;47.40
17659;DHT22;8948;51.534;8.262;2024-03-02T15:51:07;15.80;48.00
17659;DHT22;8948;51.534;8.262;2024-03-02T15:56:07;15.50;48.00
17659;DHT22;8948;51.534;8.262;2024-03-02T16:01:08;15.10;49.20
17659;DHT22;8948;51.534;8.262;2024-03-02T16:06:08;15.10;49.70
17659;DHT22;8948;51.534;8.262;2024-03-02T16:11:09;15.00;49.30
17659;DHT22;8948;51.534;8.262;2024-03-02T16:16:11;14.80;48.80
17659;DHT22;8948;51.534;8.262;2024-03-02T16:21:11;14.70;48.60
17659;DHT22;8948;51.534;8.262;2024-03-02T16:26:13;14.70;49.40
17659;DHT22;8948;51.534;8.262;2024-03-02T16:31:13;14.60;49.00
17659;DHT22;8948;51.534;8.262;2024-03-02T16:36:15;14.60;49.60
17659;DHT22;8948;51.534;8.262;2024-03-02T16:41:16;14.50;49.40
17659;DHT22;8948;51.534;8.262;2024-03-02T16:46:18;14.40;49.70
17659;DHT22;8948;51.534;8.262;2024-03-02T16:51:18;14.50;50.10
17659;DHT22;8948;51.534;8.262;2024-03-02T16:56:19;14.40;50.50
17659;DHT22;8948;51.534;8.262;2024-03-02T17:01:19;14.30;50.50
17659;DHT22;8948;51.534;8.262;2024-03-02T17:06:20;14.20;50.50
17659;DHT22;8948;51.534;8.262;2024-03-02T17:11:20;14.00;50.50
17659;DHT22;8948;51.534;8.262;2024-03-02T17:16:21;13.90;51.30
17659;DHT22;8948;51.534;8.262;2024-03-02T17:21:21;13.80;51.00
17659;DHT22;8948;51.534;8.262;2024-03-02T17:26:23;13.80;50.90
17659;DHT22;8948;51.534;8.262;2024-03-02T17:31:24;13.80;51.20
17659;DHT22;8948;51.534;8.262;2024-03-02T17:36:24;13.70;51.30
17659;DHT22;8948;51.534;8.262;2024-03-02T17:41:25;13.70;51.40
17659;DHT22;8948;51.534;8.262;2024-03-02T17:46:25;13.70;51.80
17659;DHT22;8948;51.534;8.262;2024-03-02T17:51:26;13.60;51.40
17659;DHT22;8948;51.534;8.262;2024-03-02T17:56:26;13.60;51.70
17659;DHT22;8948;51.534;8.262;2024-03-02T18:01:27;13.60;51.50
17659;DHT22;8948;51.534;8.262;2024-03-02T18:06:27;13.60;51.50
17659;DHT22;8948;51.534;8.262;2024-03-02T18:11:28;13.60;51.60
17659;DHT22;8948;51.534;8.262;2024-03-02T18:16:29;13.60;51.50
17659;DHT22;8948;51.534;8.262;2024-03-02T18:21:29;13.60;51.90
17659;DHT22;8948;51.534;8.262;2024-03-02T18:26:30;13.60;52.00
17659;DHT22;8948;51.534;8.262;2024-03-02T18:31:33;13.40;52.70
17659;DHT22;8948;51.534;8.262;2024-03-02T18:36:33;13.40;52.10
17659;DHT22;8948;51.534;8.262;2024-03-02T18:41:34;13.20;52.70
17659;DHT22;8948;51.534;8.262;2024-03-02T18:46:34;13.00;53.00
17659;DHT22;8948;51.534;8.262;2024-03-02T18:51:35;13.00;53.50
17659;DHT22;8948;51.534;8.262;2024-03-02T18:56:36;12.90;53.20
17659;DHT22;8948;51.534;8.262;2024-03-02T19:01:36;12.80;53.40
17659;DHT22;8948;51.534;8.262;2024-03-02T19:06:37;12.80;53.90
17659;DHT22;8948;51.534;8.262;2024-03-02T19:11:37;12.80;54.10
17659;DHT22;8948;51.534;8.262;2024-03-02T19:16:38;12.80;54.00
17659;DHT22;8948;51.534;8.262;2024-03-02T19:21:39;12.60;54.40
17659;DHT22;8948;51.534;8.262;2024-03-02T19:26:40;12.60;54.30
17659;DHT22;8948;51.534;8.262;2024-03-02T19:31:41;12.60;54.70
17659;DHT22;8948;51.534;8.262;2024-03-02T19:36:42;12.50;55.00
17659;DHT22;8948;51.534;8.262;2024-03-02T19:41:42;12.30;55.30
17659;DHT22;8948;51.534;8.262;2024-03-02T19:46:43;12.30;55.30
17659;DHT22;8948;51.534;8.262;2024-03-02T19:51:43;12.30;55.60
17659;DHT22;8948;51.534;8.262;2024-03-02T19:56:44;12.30;55.40
17659;DHT22;8948;51.534;8.262;2024-03-02T20:01:45;12.30;55.40
17659;DHT22;8948;51.534;8.262;2024-03-02T20:06:45;12.20;55.60
17659;DHT22;8948;51.534;8.262;2024-03-02T20:11:46;12.10;56.10
17659;DHT22;8948;51.534;8.262;2024-03-02T20:16:48;12.10;56.10
17659;DHT22;8948;51.534;8.262;2024-03-02T20:21:48;12.00;56.10
17659;DHT22;8948;51.534;8.262;2024-03-02T20:26:49;12.00;56.00
17659;DHT22;8948;51.534;8.262;2024-03-02T20:31:49;11.80;56.30
17659;DHT22;8948;51.534;8.262;2024-03-02T20:36:50;11.70;56.80
17659;DHT22;8948;51.534;8.262;2024-03-02T20:41:50;11.70;56.90
17659;DHT22;8948;51.534;8.262;2024-03-02T20:46:52;11.70;56.90
17659;DHT22;8948;51.534;8.262;2024-03-02T20:51:52;11.70;57.00
17659;DHT22;8948;51.534;8.262;2024-03-02T20:56:53;11.70;56.90
17659;DHT22;8948;51.534;8.262;2024-03-02T21:01:55;11.60;57.50
17659;DHT22;8948;51.534;8.262;2024-03-02T21:06:56;11.70;57.30
17659;DHT22;8948;51.534;8.262;2024-03-02T21:11:56;11.70;57.30
17659;DHT22;8948;51.534;8.262;2024-03-02T21:16:57;11.70;57.10
17659;DHT22;8948;51.534;8.262;2024-03-02T21:21:57;11.80;57.30
17659;DHT22;8948;51.534;8.262;2024-03-02T21:26:58;11.70;57.40
17659;DHT22;8948;51.534;8.262;2024-03-02T21:31:59;11.70;57.60
17659;DHT22;8948;51.534;8.262;2024-03-02T21:36:59;11.60;57.90
17659;DHT22;8948;51.534;8.262;2024-03-02T21:42:00;11.60;58.00
17659;DHT22;8948;51.534;8.262;2024-03-02T21:47:00;11.60;58.00
17659;DHT22;8948;51.534;8.262;2024-03-02T21:52:01;11.50;58.10
17659;DHT22;8948;51.534;8.262;2024-03-02T21:57:01;11.50;58.40
17659;DHT22;8948;51.534;8.262;2024-03-02T22:02:03;11.50;58.60
17659;DHT22;8948;51.534;8.262;2024-03-02T22:07:03;11.50;58.60
17659;DHT22;8948;51.534;8.262;2024-03-02T22:12:04;11.50;58.60
17659;DHT22;8948;51.534;8.262;2024-03-02T22:17:05;11.40;59.10
17659;DHT22;8948;51.534;8.262;2024-03-02T22:22:06;11.50;58.90
17659;DHT22;8948;51.534;8.262;2024-03-02T22:27:06;11.50;59.00
17659;DHT22;8948;51.534;8.262;2024-03-02T22:32:07;11.40;59.40
17659;DHT22;8948;51.534;8.262;2024-03-02T22:37:08;11.40;59.40
17659;DHT22;8948;51.534;8.262;2024-03-02T22:42:09;11.40;59.40
17659;DHT22;8948;51.534;8.262;2024-03-02T22:47:09;11.40;59.90
17659;DHT22;8948;51.534;8.262;2024-03-02T22:52:12;11.40;59.90
17659;DHT22;8948;51.534;8.262;2024-03-02T22:57:12;11.40;59.70
17659;DHT22;8948;51.534;8.262;2024-03-02T23:02:17;11.40;59.70
17659;DHT22;8948;51.534;8.262;2024-03-02T23:07:18;11.40;59.50
17659;DHT22;8948;51.534;8.262;2024-03-02T23:12:23;11.40;59.40
17659;DHT22;8948;51.534;8.262;2024-03-02T23:17:23;11.40;59.30
17659;DHT22;8948;51.534;8.262;2024-03-02T23:22:24;11.50;59.20
17659;DHT22;8948;51.534;8.262;2024-03-02T23:27:24;11.50;58.80
17659;DHT22;8948;51.534;8.262;2024-03-02T23:32:25;11.60;58.80
17659;DHT22;8948;51.534;8.262;2024-03-02T23:37:25;11.60;58.10
17659;DHT22;8948;51.534;8.262;2024-03-02T23:42:28;11.50;57.80
17659;DHT22;8948;51.534;8.262;2024-03-02T23:47:29;11.50;57.60
17659;DHT22;8948;51.534;8.262;2024-03-02T23:52:29;11.50;57.20
17659;DHT22;8948;51.534;8.262;2024-03-02T23:57:30;11.50;57.60
